createdAt,value
2023-03-05T00:01:25.349Z,1.00
2023-03-05T00:03:54.129Z,1.00
2023-03-05T00:06:23.802Z,1.00
2023-03-05T00:08:53.352Z,1.00
2023-03-05T00:11:22.007Z,1.00
2023-03-05T00:13:52.586Z,1.00
2023-03-05T00:16:20.113Z,1.00
2023-03-05T00:18:47.162Z,1.00
2023-03-05T00:21:19.998Z,1.00
2023-03-05T00:23:47.139Z,1.00
2023-03-05T00:26:13.874Z,1.00
2023-03-05T00:28:40.583Z,1.00
2023-03-05T00:31:07.351Z,1.00
2023-03-05T00:33:34.420Z,1.00
2023-03-05T00:36:06.397Z,1.00
2023-03-05T00:38:33.626Z,1.00
2023-03-05T00:41:00.695Z,1.00
2023-03-05T00:43:27.678Z,1.00
2023-03-05T00:45:54.394Z,1.00
2023-03-05T00:48:22.491Z,1.00
2023-03-05T00:50:49.848Z,1.00
2023-03-05T00:53:16.752Z,1.00
2023-03-05T00:55:43.459Z,1.00
2023-03-05T00:58:10.168Z,1.00
2023-03-05T01:00:37.301Z,1.00
2023-03-05T01:03:07.006Z,1.00
2023-03-05T01:05:34.004Z,1.00
2023-03-05T01:08:00.834Z,1.00
2023-03-05T01:10:30.131Z,1.00
2023-03-05T01:12:57.359Z,1.00
2023-03-05T01:15:25.295Z,1.00
2023-03-05T01:17:52.232Z,1.00
2023-03-05T01:20:21.740Z,1.00
2023-03-05T01:22:49.072Z,1.00
2023-03-05T01:25:16.698Z,1.00
2023-03-05T01:27:43.438Z,1.00
2023-03-05T01:30:11.933Z,1.00
2023-03-05T01:32:38.846Z,1.00
2023-03-05T01:35:06.905Z,1.00
2023-03-05T01:37:36.768Z,1.00
2023-03-05T01:40:04.007Z,1.00
2023-03-05T01:42:30.672Z,1.00
2023-03-05T01:45:10.791Z,1.00
2023-03-05T01:47:38.450Z,1.00
2023-03-05T01:50:07.462Z,1.00
2023-03-05T01:52:39.166Z,1.00
2023-03-05T01:55:11.872Z,1.00
2023-03-05T01:57:43.948Z,1.00
2023-03-05T02:00:15.670Z,1.00
2023-03-05T02:02:44.640Z,1.00
2023-03-05T02:05:17.940Z,1.00
2023-03-05T02:07:45.296Z,1.00
2023-03-05T02:10:38.759Z,1.00
2023-03-05T02:13:08.475Z,1.00
2023-03-05T02:15:35.918Z,1.00
2023-03-05T02:18:02.613Z,1.00
2023-03-05T02:20:42.222Z,1.00
2023-03-05T02:23:08.928Z,1.00
2023-03-05T02:25:35.600Z,1.00
2023-03-05T02:28:04.048Z,1.00
2023-03-05T02:30:31.433Z,1.00
2023-03-05T02:32:58.705Z,1.00
2023-03-05T02:35:28.544Z,1.00
2023-03-05T02:37:55.236Z,1.00
2023-03-05T02:40:21.933Z,1.00
2023-03-05T02:42:51.446Z,1.00
2023-03-05T02:45:18.666Z,1.00
2023-03-05T02:47:48.531Z,1.00
2023-03-05T02:50:15.393Z,1.00
2023-03-05T02:52:42.115Z,1.00
2023-03-05T02:55:09.225Z,1.00
2023-03-05T02:57:35.859Z,1.00
2023-03-05T03:00:03.434Z,1.00
2023-03-05T03:02:30.131Z,1.00
2023-03-05T03:04:56.841Z,1.00
2023-03-05T03:07:23.865Z,1.00
2023-03-05T03:09:50.654Z,1.00
2023-03-05T03:12:17.336Z,1.00
2023-03-05T03:14:44.172Z,1.00
2023-03-05T03:17:16.785Z,1.00
2023-03-05T03:19:44.500Z,1.00
2023-03-05T03:22:12.925Z,1.00
2023-03-05T03:24:41.028Z,1.00
2023-03-05T03:27:10.888Z,1.00
2023-03-05T03:29:37.919Z,1.00
2023-03-05T03:32:04.955Z,1.00
2023-03-05T03:34:33.962Z,1.00
2023-03-05T03:37:01.515Z,1.00
2023-03-05T03:39:29.005Z,1.00
2023-03-05T03:41:58.803Z,1.00
2023-03-05T03:44:25.493Z,1.00
2023-03-05T03:46:54.445Z,1.00
2023-03-05T03:49:25.929Z,1.00
2023-03-05T03:51:54.676Z,1.00
2023-03-05T03:54:22.435Z,1.00
2023-03-05T03:56:52.562Z,1.00
2023-03-05T03:59:19.405Z,1.00
2023-03-05T04:01:46.138Z,1.00
2023-03-05T04:04:13.791Z,1.00
2023-03-05T04:06:40.712Z,1.00
2023-03-05T04:09:10.628Z,1.00
2023-03-05T04:11:37.748Z,1.00
2023-03-05T04:14:07.241Z,1.00
2023-03-05T04:16:34.004Z,1.00
2023-03-05T04:19:00.643Z,1.00
2023-03-05T04:21:27.323Z,1.00
2023-03-05T04:23:53.990Z,1.00
2023-03-05T04:26:23.035Z,1.00
2023-03-05T04:28:50.971Z,1.00
2023-03-05T04:31:17.671Z,1.00
2023-03-05T04:33:44.340Z,1.00
2023-03-05T04:36:10.981Z,1.00
2023-03-05T04:38:37.664Z,1.00
2023-03-05T04:41:04.589Z,1.00
2023-03-05T04:43:31.313Z,1.00
2023-03-05T04:45:58.160Z,1.00
2023-03-05T04:48:24.879Z,1.00
2023-03-05T04:50:54.458Z,1.00
2023-03-05T04:53:21.190Z,1.00
2023-03-05T04:55:53.225Z,1.00
2023-03-05T04:58:19.847Z,1.00
2023-03-05T05:00:46.760Z,1.00
2023-03-05T05:03:13.923Z,1.00
2023-03-05T05:05:40.989Z,1.00
2023-03-05T05:08:07.698Z,1.00
2023-03-05T05:10:34.409Z,1.00
2023-03-05T05:13:01.069Z,1.00
2023-03-05T05:15:27.729Z,1.00
2023-03-05T05:17:54.418Z,1.00
2023-03-05T05:20:21.183Z,1.00
2023-03-05T05:22:47.855Z,1.00
2023-03-05T05:25:14.627Z,1.00
2023-03-05T05:27:41.595Z,1.00
2023-03-05T05:30:09.378Z,1.00
2023-03-05T05:32:36.220Z,1.00
2023-03-05T05:35:03.789Z,1.00
2023-03-05T05:37:33.666Z,1.00
2023-03-05T05:40:00.485Z,1.00
2023-03-05T05:42:29.435Z,1.00
2023-03-05T05:44:56.548Z,1.00
2023-03-05T05:47:26.652Z,1.00
2023-03-05T05:49:53.398Z,1.00
2023-03-05T05:52:20.122Z,1.00
2023-03-05T05:54:46.880Z,1.00
2023-03-05T05:57:14.182Z,99.90
2023-03-05T05:59:41.768Z,99.90
2023-03-05T06:02:08.869Z,99.90
2023-03-05T06:04:36.331Z,99.90
2023-03-05T06:07:03.950Z,99.90
2023-03-05T06:09:30.605Z,99.90
2023-03-05T06:11:57.580Z,99.90
2023-03-05T06:14:24.236Z,99.90
2023-03-05T06:16:50.963Z,99.90
2023-03-05T06:19:26.463Z,99.90
2023-03-05T06:21:53.152Z,99.90
2023-03-05T06:24:19.843Z,99.90
2023-03-05T06:26:49.428Z,99.90
2023-03-05T06:29:16.525Z,99.90
2023-03-05T06:31:43.289Z,99.90
2023-03-05T06:34:10.839Z,99.90
2023-03-05T06:36:40.691Z,99.90
2023-03-05T06:39:07.770Z,99.90
2023-03-05T06:41:34.451Z,99.90
2023-03-05T06:44:03.035Z,99.90
2023-03-05T06:46:31.876Z,99.90
2023-03-05T06:49:02.789Z,99.90
2023-03-05T06:51:35.379Z,99.90
2023-03-05T06:54:13.118Z,99.90
2023-03-05T06:56:42.147Z,99.90
2023-03-05T06:59:10.403Z,99.90
2023-03-05T07:01:39.726Z,99.90
2023-03-05T07:04:06.873Z,99.90
2023-03-05T07:06:36.333Z,99.90
2023-03-05T07:09:05.523Z,99.90
2023-03-05T07:11:32.644Z,1.00
2023-03-05T07:13:59.786Z,1.00
2023-03-05T07:16:29.236Z,1.00
2023-03-05T07:18:57.575Z,1.00
2023-03-05T07:21:26.376Z,1.00
2023-03-05T07:23:54.588Z,1.00
2023-03-05T07:26:22.077Z,1.00
2023-03-05T07:28:48.970Z,1.00
2023-03-05T07:31:19.394Z,1.00
2023-03-05T07:33:47.698Z,1.00
2023-03-05T07:36:14.771Z,1.00
2023-03-05T07:38:41.881Z,1.00
2023-03-05T07:41:12.639Z,1.00
2023-03-05T07:43:39.656Z,1.00
2023-03-05T07:46:08.865Z,1.00
2023-03-05T07:48:36.012Z,1.00
2023-03-05T07:51:08.260Z,1.00
2023-03-05T07:53:35.261Z,1.00
2023-03-05T07:56:02.835Z,1.00
2023-03-05T07:58:29.672Z,1.00
2023-03-05T08:00:56.427Z,1.00
2023-03-05T08:03:23.125Z,1.00
2023-03-05T08:05:55.853Z,1.00
2023-03-05T08:08:22.484Z,1.00
2023-03-05T08:10:49.149Z,1.00
2023-03-05T08:13:15.854Z,1.00
2023-03-05T08:15:42.611Z,1.00
2023-03-05T08:18:09.262Z,1.00
2023-03-05T08:20:38.669Z,1.00
2023-03-05T08:23:05.362Z,99.90
2023-03-05T08:25:32.280Z,99.90
2023-03-05T08:27:58.947Z,99.90
2023-03-05T08:30:27.469Z,99.90
2023-03-05T08:32:57.546Z,99.90
2023-03-05T08:35:24.534Z,99.90
2023-03-05T08:37:51.751Z,99.90
2023-03-05T08:40:19.347Z,99.90
2023-03-05T08:42:46.214Z,99.90
2023-03-05T08:45:16.109Z,99.90
2023-03-05T08:47:42.776Z,99.90
2023-03-05T08:50:10.203Z,99.90
2023-03-05T08:52:37.037Z,99.90
2023-03-05T08:55:04.046Z,1.00
2023-03-05T08:57:30.910Z,1.00
2023-03-05T08:59:57.697Z,1.00
2023-03-05T09:02:24.616Z,1.00
2023-03-05T09:04:51.399Z,1.00
2023-03-05T09:07:18.095Z,1.00
2023-03-05T09:09:44.756Z,1.00
2023-03-05T09:12:15.910Z,1.00
2023-03-05T09:14:42.755Z,1.00
2023-03-05T09:17:09.738Z,1.00
2023-03-05T09:19:36.466Z,1.00
2023-03-05T09:22:05.988Z,1.00
2023-03-05T09:24:32.631Z,1.00
2023-03-05T09:27:00.420Z,1.00
2023-03-05T09:29:27.695Z,1.00
2023-03-05T09:31:55.234Z,1.00
2023-03-05T09:34:22.658Z,1.00
2023-03-05T09:36:49.454Z,1.00
2023-03-05T09:39:16.943Z,1.00
2023-03-05T09:42:10.293Z,1.00
2023-03-05T09:45:02.362Z,1.00
2023-03-05T09:47:37.930Z,1.00
2023-03-05T09:50:07.669Z,1.00
2023-03-05T09:52:43.514Z,1.00
2023-03-05T09:55:17.605Z,1.00
2023-03-05T09:57:51.456Z,1.00
2023-03-05T10:00:46.985Z,1.00
2023-03-05T10:03:25.426Z,1.00
2023-03-05T10:06:14.742Z,1.00
2023-03-05T10:09:04.004Z,1.00
2023-03-05T10:11:52.075Z,1.00
2023-03-05T10:14:40.327Z,1.00
2023-03-05T10:17:43.686Z,1.00
2023-03-05T10:20:52.331Z,1.00
2023-03-05T10:23:51.685Z,1.00
2023-03-05T10:26:38.199Z,1.00
2023-03-05T10:29:17.463Z,1.00
2023-03-05T10:32:26.389Z,1.00
2023-03-05T10:35:13.642Z,1.00
2023-03-05T10:38:00.879Z,1.00
2023-03-05T10:40:48.520Z,1.00
2023-03-05T10:43:24.419Z,1.00
2023-03-05T10:45:54.024Z,1.00
2023-03-05T10:48:58.713Z,1.00
2023-03-05T10:51:38.209Z,1.00
2023-03-05T10:54:11.704Z,1.00
2023-03-05T10:56:38.431Z,1.00
2023-03-05T10:59:05.048Z,1.00
2023-03-05T11:01:32.268Z,1.00
2023-03-05T11:04:05.811Z,1.00
2023-03-05T11:06:42.134Z,1.00
2023-03-05T11:09:32.101Z,1.00
2023-03-05T11:12:10.016Z,1.00
2023-03-05T11:15:07.014Z,1.00
2023-03-05T11:17:39.350Z,1.00
2023-03-05T11:20:28.066Z,1.00
2023-03-05T11:23:26.270Z,1.00
2023-03-05T11:26:01.213Z,1.00
2023-03-05T11:29:03.833Z,1.00
2023-03-05T11:31:33.533Z,1.00
2023-03-05T11:34:30.150Z,1.00
2023-03-05T11:36:59.326Z,1.00
2023-03-05T11:39:27.284Z,1.00
2023-03-05T11:42:04.484Z,1.00
2023-03-05T11:44:39.627Z,1.00
2023-03-05T11:47:37.443Z,1.00
2023-03-05T11:50:16.147Z,1.00
2023-03-05T11:53:19.031Z,1.00
2023-03-05T11:55:54.458Z,1.00
2023-03-05T11:58:29.380Z,36.30
2023-03-05T12:08:34.088Z,97.40
2023-03-05T12:11:07.612Z,1.00
2023-03-05T12:13:43.396Z,1.00
2023-03-05T12:16:28.251Z,1.00
2023-03-05T12:19:10.484Z,1.00
2023-03-05T12:21:43.278Z,1.00
2023-03-05T12:24:28.493Z,1.00
2023-03-05T12:27:04.855Z,1.00
2023-03-05T12:29:40.004Z,1.00
2023-03-05T12:35:24.178Z,1.00
2023-03-05T12:37:55.659Z,1.00
2023-03-05T12:40:25.502Z,1.00
2023-03-05T12:42:54.956Z,1.00
2023-03-05T12:45:21.538Z,1.00
2023-03-05T12:48:11.785Z,19.00
2023-03-05T12:50:38.396Z,99.90
2023-03-05T13:16:37.574Z,66.10
2023-03-05T13:24:01.574Z,99.90
2023-03-05T13:26:37.368Z,99.90
2023-03-05T13:29:10.702Z,1.00
2023-03-05T13:34:46.103Z,99.90
2023-03-05T13:37:21.991Z,99.90
2023-03-05T13:39:56.352Z,99.90
2023-03-05T13:42:30.002Z,1.00
2023-03-05T13:45:01.935Z,99.90
2023-03-05T13:47:31.687Z,70.40
2023-03-05T13:50:00.346Z,99.90
2023-03-05T13:52:32.715Z,1.00
2023-03-05T13:55:01.213Z,99.90
2023-03-05T13:57:35.754Z,1.00
2023-03-05T14:00:04.738Z,1.00
2023-03-05T14:02:33.375Z,99.90
2023-03-05T14:05:00.572Z,99.90
2023-03-05T14:07:39.754Z,99.90
2023-03-05T14:10:38.908Z,99.90
2023-03-05T14:13:14.643Z,99.90
2023-03-05T14:15:41.526Z,1.00
2023-03-05T14:18:15.098Z,1.00
2023-03-05T14:21:11.203Z,99.90
2023-03-05T14:23:54.812Z,1.00
2023-03-05T14:26:28.997Z,99.90
2023-03-05T14:29:24.269Z,99.90
2023-03-05T14:32:01.157Z,25.50
2023-03-05T14:34:37.285Z,99.90
2023-03-05T14:37:26.700Z,99.90
2023-03-05T14:39:56.455Z,99.90
2023-03-05T14:42:30.930Z,99.90
2023-03-05T14:45:00.821Z,99.90
2023-03-05T14:47:29.011Z,99.90
2023-03-05T15:04:47.317Z,99.90
2023-03-05T15:07:21.047Z,99.90
2023-03-05T15:09:47.822Z,99.90
2023-03-05T15:12:18.152Z,1.00
2023-03-05T15:14:45.135Z,99.90
2023-03-05T15:17:19.703Z,99.90
2023-03-05T15:19:47.835Z,99.90
2023-03-05T15:22:15.618Z,81.10
2023-03-05T15:27:14.526Z,5.90
2023-03-05T15:29:41.306Z,6.20
2023-03-05T15:32:08.397Z,1.00
2023-03-05T15:34:35.633Z,1.00
2023-03-05T15:37:03.893Z,1.00
2023-03-05T15:39:30.803Z,1.00
2023-03-05T15:41:57.701Z,1.00
2023-03-05T15:44:24.628Z,1.00
2023-03-05T15:46:51.365Z,62.10
2023-03-05T15:49:18.469Z,1.00
2023-03-05T15:51:45.153Z,1.00
2023-03-05T15:54:12.047Z,1.00
2023-03-05T15:56:40.769Z,1.00
2023-03-05T15:59:10.008Z,1.00
2023-03-05T16:01:38.046Z,1.00
2023-03-05T16:04:05.852Z,1.00
2023-03-05T16:06:36.735Z,1.00
2023-03-05T16:09:05.097Z,1.00
2023-03-05T16:11:35.224Z,1.00
2023-03-05T16:14:05.464Z,1.00
2023-03-05T16:16:34.495Z,1.00
2023-03-05T16:19:06.473Z,86.10
2023-03-05T16:21:33.325Z,20.50
2023-03-05T16:23:59.967Z,53.00
2023-03-05T16:26:26.708Z,1.00
2023-03-05T16:28:53.544Z,35.50
2023-03-05T16:31:20.302Z,1.00
2023-03-05T16:33:47.006Z,1.00
2023-03-05T16:36:21.344Z,1.00
2023-03-05T16:38:52.251Z,1.00
2023-03-05T16:41:21.968Z,1.00
2023-03-05T16:43:51.556Z,1.00
2023-03-05T16:46:18.201Z,1.00
2023-03-05T16:48:45.057Z,1.00
2023-03-05T16:51:14.740Z,1.00
2023-03-05T16:53:41.924Z,1.00
2023-03-05T16:56:09.661Z,1.00
2023-03-05T16:58:38.250Z,99.90
2023-03-05T17:01:16.409Z,1.00
2023-03-05T17:03:43.989Z,1.00
2023-03-05T17:06:31.569Z,1.00
2023-03-05T17:09:00.498Z,1.00
2023-03-05T17:11:27.533Z,1.00
2023-03-05T17:13:54.555Z,1.00
2023-03-05T17:16:21.467Z,1.00
2023-03-05T17:18:48.465Z,1.00
2023-03-05T17:21:23.115Z,1.00
2023-03-05T17:23:53.152Z,1.00
2023-03-05T17:26:20.521Z,1.00
2023-03-05T17:28:47.529Z,1.00
2023-03-05T17:31:15.020Z,1.00
2023-03-05T17:33:42.950Z,1.00
2023-03-05T17:36:21.653Z,1.00
2023-03-05T17:38:49.280Z,1.00
2023-03-05T17:41:17.679Z,1.00
2023-03-05T17:43:47.216Z,1.00
2023-03-05T17:46:14.383Z,1.00
2023-03-05T17:48:41.662Z,1.00
2023-03-05T17:51:13.715Z,1.00
2023-03-05T17:53:40.686Z,1.00
2023-03-05T17:56:09.471Z,1.00
2023-03-05T17:58:36.793Z,1.00
2023-03-05T18:01:04.750Z,1.00
2023-03-05T18:03:38.887Z,1.00
2023-03-05T18:06:05.848Z,99.90
2023-03-05T18:08:32.790Z,99.90
2023-03-05T18:10:59.650Z,1.00
2023-03-05T18:13:26.634Z,1.00
2023-03-05T18:15:54.096Z,99.90
2023-03-05T18:18:20.808Z,99.90
2023-03-05T18:20:48.712Z,99.90
2023-03-05T18:23:18.698Z,99.90
2023-03-05T18:25:45.591Z,99.90
2023-03-05T18:28:14.523Z,99.90
2023-03-05T18:30:42.629Z,99.90
2023-03-05T18:33:19.023Z,99.90
2023-03-05T18:35:46.038Z,99.90
2023-03-05T18:38:20.142Z,99.90
2023-03-05T18:40:50.006Z,99.90
2023-03-05T18:43:17.817Z,99.90
2023-03-05T18:45:54.162Z,99.90
2023-03-05T18:48:23.927Z,99.90
2023-03-05T18:50:52.468Z,99.90
2023-03-05T18:53:19.860Z,99.90
2023-03-05T18:55:46.535Z,99.90
2023-03-05T18:58:17.433Z,99.90
2023-03-05T19:00:47.682Z,99.90
2023-03-05T19:03:15.798Z,99.90
2023-03-05T19:05:43.201Z,99.90
2023-03-05T19:08:10.008Z,99.90
2023-03-05T19:10:36.851Z,99.90
2023-03-05T19:13:34.714Z,99.90
2023-03-05T19:16:13.034Z,99.90
2023-03-05T19:19:08.897Z,99.90
2023-03-05T19:21:37.718Z,99.90
2023-03-05T19:24:04.549Z,99.90
2023-03-05T19:26:37.856Z,99.90
2023-03-05T19:29:08.359Z,99.90
2023-03-05T19:31:38.530Z,99.90
2023-03-05T19:34:05.825Z,99.90
2023-03-05T19:36:34.432Z,99.90
2023-03-05T19:39:04.152Z,99.90
2023-03-05T19:41:30.956Z,99.90
2023-03-05T19:43:57.736Z,99.90
2023-03-05T19:46:24.636Z,99.90
2023-03-05T19:48:51.399Z,99.90
2023-03-05T19:51:22.951Z,99.90
2023-03-05T19:53:50.042Z,99.90
2023-03-05T19:56:18.172Z,99.90
2023-03-05T19:58:47.560Z,99.90
2023-03-05T20:01:25.809Z,99.90
2023-03-05T20:03:57.841Z,99.90
2023-03-05T20:06:26.120Z,99.90
2023-03-05T20:08:52.960Z,99.90
2023-03-05T20:11:21.163Z,99.90
2023-03-05T20:13:48.479Z,99.90
2023-03-05T20:16:23.432Z,99.90
2023-03-05T20:18:54.795Z,99.90
2023-03-05T20:21:28.153Z,99.90
2023-03-05T20:23:57.459Z,99.90
2023-03-05T20:26:28.459Z,99.90
2023-03-05T20:28:56.203Z,99.90
2023-03-05T20:31:25.577Z,99.90
2023-03-05T20:33:52.550Z,99.90
2023-03-05T20:36:19.335Z,99.90
2023-03-05T20:38:46.468Z,99.90
2023-03-05T20:41:16.565Z,99.90
2023-03-05T20:43:46.204Z,99.90
2023-03-05T20:46:19.017Z,99.90
2023-03-05T20:48:48.044Z,99.90
2023-03-05T20:51:36.432Z,99.90
2023-03-05T20:54:10.029Z,99.90
2023-03-05T20:56:37.853Z,99.90
2023-03-05T20:59:08.681Z,99.90
2023-03-05T21:01:37.843Z,99.90
2023-03-05T21:04:05.399Z,99.90
2023-03-05T21:06:33.387Z,99.90
2023-03-05T21:09:00.687Z,99.90
2023-03-05T21:11:27.573Z,99.90
2023-03-05T21:13:54.475Z,99.90
2023-03-05T21:16:26.934Z,99.90
2023-03-05T21:18:55.974Z,99.90
2023-03-05T21:21:23.109Z,99.90
2023-03-05T21:23:49.971Z,99.90
2023-03-05T21:26:16.924Z,99.90
2023-03-05T21:28:43.670Z,99.90
2023-03-05T21:31:16.468Z,99.90
2023-03-05T21:33:43.326Z,99.90
2023-03-05T21:36:10.420Z,99.90
2023-03-05T21:38:39.404Z,99.90
2023-03-05T21:41:09.778Z,99.90
2023-03-05T21:43:36.514Z,99.90
2023-03-05T21:46:03.414Z,99.90
2023-03-05T21:48:31.097Z,99.90
2023-03-05T21:50:58.580Z,99.90
2023-03-05T21:53:25.537Z,99.90
2023-03-05T21:56:05.248Z,99.90
2023-03-05T21:58:33.438Z,99.90
2023-03-05T22:01:00.396Z,99.90
2023-03-05T22:03:27.932Z,99.90
2023-03-05T22:05:55.268Z,99.90
2023-03-05T22:08:22.716Z,99.90
2023-03-05T22:10:49.879Z,99.90
2023-03-05T22:13:17.914Z,99.90
2023-03-05T22:15:49.459Z,99.90
2023-03-05T22:18:21.423Z,99.90
2023-03-05T22:20:49.035Z,99.90
2023-03-05T22:23:16.629Z,99.90
2023-03-05T22:25:44.235Z,99.90
2023-03-05T22:28:12.621Z,99.90
2023-03-05T22:30:43.913Z,99.90
2023-03-05T22:33:11.175Z,99.90
2023-03-05T22:35:39.984Z,99.90
2023-03-05T22:38:08.108Z,99.90
2023-03-05T22:40:36.931Z,99.90
2023-03-05T22:43:04.718Z,99.90
2023-03-05T22:45:36.463Z,99.90
2023-03-05T22:48:04.778Z,99.90
2023-03-05T22:50:31.475Z,99.90
2023-03-05T22:52:58.989Z,99.90
2023-03-05T22:55:25.664Z,99.90
2023-03-05T22:57:52.338Z,99.90
2023-03-05T23:00:25.266Z,99.90
2023-03-05T23:02:55.027Z,99.90
2023-03-05T23:05:21.717Z,99.90
2023-03-05T23:07:49.156Z,99.90
2023-03-05T23:10:23.013Z,99.90
2023-03-05T23:12:52.604Z,99.90
2023-03-05T23:15:29.869Z,99.90
2023-03-05T23:17:56.946Z,99.90
2023-03-05T23:20:27.073Z,99.90
2023-03-05T23:23:03.137Z,99.90
2023-03-05T23:25:33.106Z,99.90
2023-03-05T23:28:00.831Z,99.90
2023-03-05T23:30:29.173Z,99.90
2023-03-05T23:33:00.238Z,99.90
2023-03-05T23:35:30.200Z,99.90
2023-03-05T23:37:58.541Z,99.90
2023-03-05T23:40:31.841Z,99.90
2023-03-05T23:42:58.692Z,99.90
2023-03-05T23:45:29.192Z,99.90
2023-03-05T23:47:56.207Z,99.90
2023-03-05T23:50:29.090Z,99.90
2023-03-05T23:52:56.242Z,99.90
2023-03-05T23:55:29.470Z,99.90
2023-03-05T23:57:56.335Z,99.90
